Terminal Aerodrome Forecast
Issued by NWS Sioux Falls, SD

Home | Current Version | Previous Version | Graphics & Text | Print | Product List | Glossary On
Versions: 1 2 3 4 5 6 7 8 9 10 11 12 13 14 15 16 17 18 19 20 21 22 23 24 25 26 27 28 29 30 31 32 33 34 35 36 37 38 39 40 41
000
FTUS43 KFSD 220323 AAA
TAFSUX
TAF AMD
KSUX 220323Z 2203/2224 16010KT P6SM BKN018
     FM220500 16008KT P6SM OVC014
     FM220600 16008KT 3SM BR SCT003 OVC005
     FM220900 16006KT 1/2SM FG OVC003
     FM221300 16007KT 2SM BR SCT003 OVC005
     FM221600 17009KT P6SM SCT005
     FM221900 17010KT P6SM SCT200=

USA.gov is the U.S. government's official web portal to all federal, state and local government web resources and services.